Time,TemperatureF,DewpointF,PressureIn,WindDirection,WindDirectionDegrees,WindSpeedMPH,WindSpeedGustMPH,Humidity,HourlyPrecipIn,Conditions,Clouds,dailyrainin,SoftwareType,DateUTC
2013-12-19 00:15:00,27.7,22.1,30.16,South,180,0.0,-999.0,79,-99.99,,,0.00,Acu-Link.com,2013-12-19 05:15:00,
2013-12-19 00:30:00,27.5,22.2,30.15,South,180,0.0,-999.0,80,-99.99,,,0.00,Acu-Link.com,2013-12-19 05:30:00,
2013-12-19 00:45:00,27.5,21.9,30.15,South,180,0.0,-999.0,79,-99.99,,,0.00,Acu-Link.com,2013-12-19 05:45:00,
2013-12-19 01:00:00,27.3,22.0,30.15,South,180,0.0,-999.0,80,-99.99,,,0.00,Acu-Link.com,2013-12-19 06:00:00,
2013-12-19 01:16:00,27.3,22.0,30.14,South,180,0.0,-999.0,80,-99.99,,,0.00,Acu-Link.com,2013-12-19 06:16:00,
2013-12-19 01:31:00,27.3,22.0,30.15,South,180,0.0,-999.0,80,-99.99,,,0.00,Acu-Link.com,2013-12-19 06:31:00,
2013-12-19 01:46:00,27.5,21.6,30.15,South,180,0.0,-999.0,78,-99.99,,,0.00,Acu-Link.com,2013-12-19 06:46:00,
2013-12-19 02:02:00,27.3,21.1,30.14,South,180,0.0,-999.0,77,-99.99,,,0.00,Acu-Link.com,2013-12-19 07:02:00,
2013-12-19 02:17:00,27.7,21.1,30.15,South,180,0.0,-999.0,76,-99.99,,,0.00,Acu-Link.com,2013-12-19 07:17:00,
2013-12-19 02:32:00,28.0,21.1,30.15,South,180,0.0,-999.0,75,-99.99,,,0.00,Acu-Link.com,2013-12-19 07:32:00,
2013-12-19 02:47:00,28.0,21.1,30.16,South,180,0.0,-999.0,75,-99.99,,,0.00,Acu-Link.com,2013-12-19 07:47:00,
2013-12-19 03:03:00,28.4,21.2,30.17,South,180,0.0,-999.0,74,-99.99,,,0.00,Acu-Link.com,2013-12-19 08:03:00,
2013-12-19 03:18:00,29.3,21.4,30.16,NNE,22,0.0,-999.0,72,-99.99,,,0.00,Acu-Link.com,2013-12-19 08:18:00,
2013-12-19 03:33:00,29.3,21.7,30.16,NNE,22,0.0,-999.0,73,-99.99,,,0.00,Acu-Link.com,2013-12-19 08:33:00,
2013-12-19 03:49:00,29.7,21.8,30.16,NNE,22,0.0,-999.0,72,-99.99,,,0.00,Acu-Link.com,2013-12-19 08:49:00,
2013-12-19 04:04:00,28.9,21.0,30.15,NNE,22,0.0,-999.0,72,-99.99,,,0.00,Acu-Link.com,2013-12-19 09:04:00,
2013-12-19 04:19:00,28.8,21.3,30.15,NNE,22,0.0,-999.0,73,-99.99,,,0.00,Acu-Link.com,2013-12-19 09:19:00,
2013-12-19 04:35:00,30.4,22.1,30.16,NNE,22,0.0,-999.0,71,-99.99,,,0.00,Acu-Link.com,2013-12-19 09:35:00,
2013-12-19 04:50:00,31.8,22.5,30.16,ENE,67,1.7,-999.0,68,-99.99,,,0.00,Acu-Link.com,2013-12-19 09:50:00,
2013-12-19 05:05:00,31.6,21.9,30.17,ENE,67,0.0,-999.0,67,-99.99,,,0.00,Acu-Link.com,2013-12-19 10:05:00,
2013-12-19 05:20:00,31.6,21.9,30.16,ENE,67,1.1,-999.0,67,-99.99,,,0.00,Acu-Link.com,2013-12-19 10:20:00,
2013-12-19 05:36:00,31.8,22.1,30.16,ENE,67,0.0,-999.0,67,-99.99,,,0.00,Acu-Link.com,2013-12-19 10:36:00,
2013-12-19 05:51:00,31.1,21.8,30.17,ENE,67,0.0,-999.0,68,-99.99,,,0.00,Acu-Link.com,2013-12-19 10:51:00,
2013-12-19 06:06:00,30.7,21.4,30.17,ENE,67,0.0,-999.0,68,-99.99,,,0.00,Acu-Link.com,2013-12-19 11:06:00,
2013-12-19 06:22:00,30.0,21.1,30.17,ENE,67,0.0,-999.0,69,-99.99,,,0.00,Acu-Link.com,2013-12-19 11:22:00,
2013-12-19 06:37:00,29.7,21.5,30.17,ENE,67,0.0,-999.0,71,-99.99,,,0.00,Acu-Link.com,2013-12-19 11:37:00,
2013-12-19 06:52:00,29.5,21.6,30.17,ENE,67,0.0,-999.0,72,-99.99,,,0.00,Acu-Link.com,2013-12-19 11:52:00,
2013-12-19 07:07:00,29.5,21.6,30.18,ENE,67,0.0,-999.0,72,-99.99,,,0.00,Acu-Link.com,2013-12-19 12:07:00,
2013-12-19 07:23:00,29.5,21.3,30.18,ENE,67,0.0,-999.0,71,-99.99,,,0.00,Acu-Link.com,2013-12-19 12:23:00,
2013-12-19 07:38:00,29.8,21.6,30.18,ENE,67,0.0,-999.0,71,-99.99,,,0.00,Acu-Link.com,2013-12-19 12:38:00,
2013-12-19 07:53:00,31.6,21.9,30.17,ENE,67,0.0,-999.0,67,-99.99,,,0.00,Acu-Link.com,2013-12-19 12:53:00,
2013-12-19 08:08:00,32.9,22.4,30.18,ENE,67,2.7,-999.0,65,-99.99,,,0.00,Acu-Link.com,2013-12-19 13:08:00,
2013-12-19 08:23:00,34.7,23.4,30.19,East,90,2.2,-999.0,63,-99.99,,,0.00,Acu-Link.com,2013-12-19 13:23:00,
2013-12-19 08:39:00,36.9,24.3,30.19,East,90,2.7,-999.0,60,-99.99,,,0.00,Acu-Link.com,2013-12-19 13:39:00,
2013-12-19 08:54:00,38.1,24.6,30.19,SSW,202,4.7,-999.0,58,-99.99,,,0.00,Acu-Link.com,2013-12-19 13:54:00,
2013-12-19 09:09:00,39.9,25.5,30.19,West,270,3.2,-999.0,56,-99.99,,,0.00,Acu-Link.com,2013-12-19 14:09:00,
2013-12-19 09:25:00,46.4,27.3,30.20,NE,45,5.3,-999.0,47,-99.99,,,0.00,Acu-Link.com,2013-12-19 14:25:00,
2013-12-19 09:40:00,49.5,27.4,30.20,East,90,2.7,-999.0,42,-99.99,,,0.00,Acu-Link.com,2013-12-19 14:40:00,
2013-12-19 09:55:00,51.3,28.4,30.19,NE,45,2.2,-999.0,41,-99.99,,,0.00,Acu-Link.com,2013-12-19 14:55:00,
2013-12-19 10:10:00,54.1,28.4,30.20,SE,135,3.2,-999.0,37,-99.99,,,0.00,Acu-Link.com,2013-12-19 15:10:00,
2013-12-19 10:25:00,55.0,27.2,30.19,SE,135,6.3,-999.0,34,-99.99,,,0.00,Acu-Link.com,2013-12-19 15:25:00,
2013-12-19 10:40:00,55.6,27.0,30.19,ENE,67,4.2,-999.0,33,-99.99,,,0.00,Acu-Link.com,2013-12-19 15:40:00,
2013-12-19 10:56:00,57.6,28.0,30.19,ENE,67,5.8,-999.0,32,-99.99,,,0.00,Acu-Link.com,2013-12-19 15:56:00,
2013-12-19 11:11:00,58.6,28.1,30.18,SSE,157,2.2,-999.0,31,-99.99,,,0.00,Acu-Link.com,2013-12-19 16:11:00,
2013-12-19 11:26:00,54.5,27.4,30.18,ESE,112,8.3,-999.0,35,-99.99,,,0.00,Acu-Link.com,2013-12-19 16:26:00,
2013-12-19 11:41:00,53.2,26.9,30.17,SE,135,4.7,-999.0,36,-99.99,,,0.00,Acu-Link.com,2013-12-19 16:41:00,
2013-12-19 11:56:00,53.2,24.9,30.16,SSW,202,2.2,-999.0,33,-99.99,,,0.00,Acu-Link.com,2013-12-19 16:56:00,
2013-12-19 12:12:00,54.0,23.3,30.14,SW,225,4.7,-999.0,30,-99.99,,,0.00,Acu-Link.com,2013-12-19 17:12:00,
2013-12-19 12:27:00,54.3,24.3,30.14,West,270,2.2,-999.0,31,-99.99,,,0.00,Acu-Link.com,2013-12-19 17:27:00,
2013-12-19 12:42:00,54.7,24.7,30.13,South,180,5.8,-999.0,31,-99.99,,,0.00,Acu-Link.com,2013-12-19 17:42:00,
2013-12-19 12:57:00,55.8,24.8,30.12,SSW,202,3.7,-999.0,30,-99.99,,,0.00,Acu-Link.com,2013-12-19 17:57:00,
2013-12-19 13:13:00,56.5,25.4,30.11,SW,225,4.7,-999.0,30,-99.99,,,0.00,Acu-Link.com,2013-12-19 18:13:00,
2013-12-19 13:28:00,57.2,24.4,30.11,SE,135,2.7,-999.0,28,-99.99,,,0.00,Acu-Link.com,2013-12-19 18:28:00,
2013-12-19 13:43:00,57.4,25.4,30.10,WNW,292,2.7,-999.0,29,-99.99,,,0.00,Acu-Link.com,2013-12-19 18:43:00,
2013-12-19 13:59:00,58.3,25.3,30.09,SW,225,4.2,-999.0,28,-99.99,,,0.00,Acu-Link.com,2013-12-19 18:59:00,
2013-12-19 14:14:00,59.2,23.4,30.09,ENE,67,4.7,-999.0,25,-99.99,,,0.00,Acu-Link.com,2013-12-19 19:14:00,
2013-12-19 14:29:00,59.5,23.7,30.09,WSW,247,5.8,-999.0,25,-99.99,,,0.00,Acu-Link.com,2013-12-19 19:29:00,
2013-12-19 14:44:00,59.7,24.8,30.09,West,270,2.2,-999.0,26,-99.99,,,0.00,Acu-Link.com,2013-12-19 19:44:00,
2013-12-19 14:59:00,59.9,24.0,30.08,North,0,5.3,-999.0,25,-99.99,,,0.00,Acu-Link.com,2013-12-19 19:59:00,
2013-12-19 15:14:00,59.7,22.9,30.09,ENE,67,3.7,-999.0,24,-99.99,,,0.00,Acu-Link.com,2013-12-19 20:14:00,
2013-12-19 15:30:00,59.4,23.6,30.08,ESE,112,6.3,-999.0,25,-99.99,,,0.00,Acu-Link.com,2013-12-19 20:30:00,
2013-12-19 15:45:00,59.2,23.4,30.08,ENE,67,2.7,-999.0,25,-99.99,,,0.00,Acu-Link.com,2013-12-19 20:45:00,
2013-12-19 16:00:00,59.2,21.4,30.09,East,90,4.7,-999.0,23,-99.99,,,0.00,Acu-Link.com,2013-12-19 21:00:00,
2013-12-19 16:15:00,58.3,22.6,30.09,ESE,112,1.1,-999.0,25,-99.99,,,0.00,Acu-Link.com,2013-12-19 21:15:00,
2013-12-19 16:30:00,56.7,23.1,30.09,West,270,0.0,-999.0,27,-99.99,,,0.00,Acu-Link.com,2013-12-19 21:30:00,
2013-12-19 16:46:00,55.4,23.7,30.10,East,90,0.0,-999.0,29,-99.99,,,0.00,Acu-Link.com,2013-12-19 21:46:00,
2013-12-19 17:01:00,53.4,24.3,30.10,ENE,67,0.0,-999.0,32,-99.99,,,0.00,Acu-Link.com,2013-12-19 22:01:00,
2013-12-19 17:16:00,51.3,24.6,30.11,South,180,0.0,-999.0,35,-99.99,,,0.00,Acu-Link.com,2013-12-19 22:16:00,
2013-12-19 17:31:00,49.5,25.0,30.11,ESE,112,0.0,-999.0,38,-99.99,,,0.00,Acu-Link.com,2013-12-19 22:31:00,
2013-12-19 17:47:00,49.5,25.6,30.11,SSE,157,0.0,-999.0,39,-99.99,,,0.00,Acu-Link.com,2013-12-19 22:47:00,
2013-12-19 18:02:00,51.4,26.0,30.11,NNW,337,0.0,-999.0,37,-99.99,,,0.00,Acu-Link.com,2013-12-19 23:02:00,
2013-12-19 18:17:00,52.0,25.9,30.11,NE,45,2.7,-999.0,36,-99.99,,,0.00,Acu-Link.com,2013-12-19 23:17:00,
2013-12-19 18:33:00,52.3,26.2,30.11,ESE,112,3.2,-999.0,36,-99.99,,,0.00,Acu-Link.com,2013-12-19 23:33:00,
2013-12-19 18:48:00,51.8,26.4,30.12,NE,45,0.0,-999.0,37,-99.99,,,0.00,Acu-Link.com,2013-12-19 23:48:00,
2013-12-19 19:03:00,52.3,26.2,30.11,East,90,4.7,-999.0,36,-99.99,,,0.00,Acu-Link.com,2013-12-20 00:03:00,
2013-12-19 19:18:00,52.3,26.2,30.12,NNE,22,2.7,-999.0,36,-99.99,,,0.00,Acu-Link.com,2013-12-20 00:18:00,
2013-12-19 19:34:00,52.2,26.7,30.12,NE,45,2.7,-999.0,37,-99.99,,,0.00,Acu-Link.com,2013-12-20 00:34:00,
2013-12-19 19:49:00,52.2,26.7,30.11,ESE,112,3.2,-999.0,37,-99.99,,,0.00,Acu-Link.com,2013-12-20 00:49:00,
2013-12-19 20:04:00,52.3,26.2,30.12,ENE,67,3.2,-999.0,36,-99.99,,,0.00,Acu-Link.com,2013-12-20 01:04:00,
2013-12-19 20:20:00,51.8,26.4,30.12,NE,45,2.7,-999.0,37,-99.99,,,0.00,Acu-Link.com,2013-12-20 01:20:00,
2013-12-19 20:35:00,51.4,26.7,30.12,WNW,292,2.7,-999.0,38,-99.99,,,0.00,Acu-Link.com,2013-12-20 01:35:00,
2013-12-19 20:50:00,51.3,27.2,30.12,ENE,67,3.7,-999.0,39,-99.99,,,0.00,Acu-Link.com,2013-12-20 01:50:00,
2013-12-19 21:06:00,51.1,27.0,30.12,East,90,3.2,-999.0,39,-99.99,,,0.00,Acu-Link.com,2013-12-20 02:06:00,
2013-12-19 21:21:00,50.5,27.1,30.12,NNE,22,1.1,-999.0,40,-99.99,,,0.00,Acu-Link.com,2013-12-20 02:21:00,
2013-12-19 21:36:00,50.4,27.0,30.12,East,90,0.0,-999.0,40,-99.99,,,0.00,Acu-Link.com,2013-12-20 02:36:00,
2013-12-19 21:51:00,50.0,27.2,30.12,East,90,4.2,-999.0,41,-99.99,,,0.00,Acu-Link.com,2013-12-20 02:51:00,
2013-12-19 22:06:00,50.7,27.3,30.12,ENE,67,3.2,-999.0,40,-99.99,,,0.00,Acu-Link.com,2013-12-20 03:06:00,
2013-12-19 22:22:00,50.5,27.1,30.11,ESE,112,2.7,-999.0,40,-99.99,,,0.00,Acu-Link.com,2013-12-20 03:22:00,
2013-12-19 22:37:00,50.0,27.2,30.11,East,90,1.7,-999.0,41,-99.99,,,0.00,Acu-Link.com,2013-12-20 03:37:00,
2013-12-19 22:52:00,49.3,27.2,30.11,ESE,112,0.0,-999.0,42,-99.99,,,0.00,Acu-Link.com,2013-12-20 03:52:00,
2013-12-19 23:08:00,49.5,27.9,30.09,East,90,3.2,-999.0,43,-99.99,,,0.00,Acu-Link.com,2013-12-20 04:08:00,
2013-12-19 23:23:00,49.3,28.3,30.10,WSW,247,0.0,-999.0,44,-99.99,,,0.00,Acu-Link.com,2013-12-20 04:23:00,
2013-12-19 23:38:00,49.3,29.4,30.10,NE,45,3.7,-999.0,46,-99.99,,,0.00,Acu-Link.com,2013-12-20 04:38:00,
2013-12-19 23:53:00,49.3,29.9,30.10,NNE,22,1.7,-999.0,47,-99.99,,,0.00,Acu-Link.com,2013-12-20 04:53:00,